sensor_id;sensor_type;location;lat;lon;timestamp;P1;durP1;ratioP1;P2;durP2;ratioP2
27722;SDS011;15123;-37.794;175.246;2022-09-19T00:02:50;12.27;;;1.40;;
27722;SDS011;15123;-37.794;175.246;2022-09-19T00:06:14;11.55;;;1.80;;
27722;SDS011;15123;-37.794;175.246;2022-09-19T00:09:38;14.13;;;1.95;;
27722;SDS011;15123;-37.794;175.246;2022-09-19T00:13:02;13.77;;;1.70;;
27722;SDS011;15123;-37.794;175.246;2022-09-19T00:16:33;12.05;;;1.52;;
27722;SDS011;15123;-37.794;175.246;2022-09-19T00:20:00;9.55;;;1.20;;
27722;SDS011;15123;-37.794;175.246;2022-09-19T00:23:24;10.95;;;1.33;;
27722;SDS011;15123;-37.794;175.246;2022-09-19T00:27:07;9.57;;;1.30;;
27722;SDS011;15123;-37.794;175.246;2022-09-19T00:30:36;11.38;;;1.60;;
27722;SDS011;15123;-37.794;175.246;2022-09-19T00:33:54;13.65;;;1.63;;
27722;SDS011;15123;-37.794;175.246;2022-09-19T00:37:11;11.07;;;1.45;;
27722;SDS011;15123;-37.794;175.246;2022-09-19T00:40:35;12.52;;;1.80;;
27722;SDS011;15123;-37.794;175.246;2022-09-19T00:44:03;10.57;;;1.60;;
27722;SDS011;15123;-37.794;175.246;2022-09-19T00:47:30;11.10;;;1.40;;
27722;SDS011;15123;-37.794;175.246;2022-09-19T00:51:00;13.95;;;1.70;;
27722;SDS011;15123;-37.794;175.246;2022-09-19T00:54:26;12.55;;;1.60;;
27722;SDS011;15123;-37.794;175.246;2022-09-19T00:58:52;14.50;;;2.10;;
27722;SDS011;15123;-37.794;175.246;2022-09-19T01:01:49;12.65;;;1.70;;
27722;SDS011;15123;-37.794;175.246;2022-09-19T01:05:20;14.23;;;1.70;;
27722;SDS011;15123;-37.794;175.246;2022-09-19T01:16:05;14.43;;;1.77;;
27722;SDS011;15123;-37.794;175.246;2022-09-19T01:27:35;13.68;;;2.00;;
27722;SDS011;15123;-37.794;175.246;2022-09-19T01:34:43;17.42;;;1.60;;
27722;SDS011;15123;-37.794;175.246;2022-09-19T01:38:11;12.25;;;1.77;;
27722;SDS011;15123;-37.794;175.246;2022-09-19T01:41:46;16.85;;;2.42;;
27722;SDS011;15123;-37.794;175.246;2022-09-19T01:45:10;10.40;;;1.50;;
27722;SDS011;15123;-37.794;175.246;2022-09-19T01:48:43;19.05;;;3.38;;
27722;SDS011;15123;-37.794;175.246;2022-09-19T01:59:26;14.93;;;1.88;;
27722;SDS011;15123;-37.794;175.246;2022-09-19T02:03:25;16.70;;;1.88;;
27722;SDS011;15123;-37.794;175.246;2022-09-19T02:07:11;18.67;;;1.90;;
27722;SDS011;15123;-37.794;175.246;2022-09-19T02:10:42;17.42;;;2.47;;
27722;SDS011;15123;-37.794;175.246;2022-09-19T02:14:16;13.27;;;1.88;;
27722;SDS011;15123;-37.794;175.246;2022-09-19T02:17:45;15.52;;;2.30;;
27722;SDS011;15123;-37.794;175.246;2022-09-19T02:21:17;15.55;;;2.03;;
27722;SDS011;15123;-37.794;175.246;2022-09-19T02:24:43;13.95;;;2.85;;
27722;SDS011;15123;-37.794;175.246;2022-09-19T02:28:13;14.10;;;1.73;;
27722;SDS011;15123;-37.794;175.246;2022-09-19T02:31:41;12.65;;;1.77;;
27722;SDS011;15123;-37.794;175.246;2022-09-19T02:35:05;15.25;;;1.90;;
27722;SDS011;15123;-37.794;175.246;2022-09-19T02:38:34;11.93;;;1.75;;
27722;SDS011;15123;-37.794;175.246;2022-09-19T02:46:07;12.15;;;1.80;;
27722;SDS011;15123;-37.794;175.246;2022-09-19T02:49:57;11.00;;;1.80;;
27722;SDS011;15123;-37.794;175.246;2022-09-19T02:53:28;12.20;;;1.77;;
27722;SDS011;15123;-37.794;175.246;2022-09-19T02:56:56;12.07;;;2.00;;
27722;SDS011;15123;-37.794;175.246;2022-09-19T03:00:22;10.80;;;2.00;;
27722;SDS011;15123;-37.794;175.246;2022-09-19T03:03:49;12.20;;;1.70;;
27722;SDS011;15123;-37.794;175.246;2022-09-19T03:07:34;14.15;;;2.20;;
27722;SDS011;15123;-37.794;175.246;2022-09-19T03:11:06;13.07;;;1.60;;
27722;SDS011;15123;-37.794;175.246;2022-09-19T03:14:32;12.13;;;1.95;;
27722;SDS011;15123;-37.794;175.246;2022-09-19T03:17:56;10.95;;;1.58;;
27722;SDS011;15123;-37.794;175.246;2022-09-19T03:21:22;13.07;;;1.80;;
27722;SDS011;15123;-37.794;175.246;2022-09-19T03:24:48;15.45;;;1.90;;
27722;SDS011;15123;-37.794;175.246;2022-09-19T03:28:21;14.15;;;2.08;;
27722;SDS011;15123;-37.794;175.246;2022-09-19T03:31:44;13.65;;;2.10;;
27722;SDS011;15123;-37.794;175.246;2022-09-19T03:35:09;15.98;;;2.00;;
27722;SDS011;15123;-37.794;175.246;2022-09-19T03:38:38;13.60;;;1.88;;
27722;SDS011;15123;-37.794;175.246;2022-09-19T03:42:12;12.27;;;2.15;;
27722;SDS011;15123;-37.794;175.246;2022-09-19T03:45:36;13.63;;;1.98;;
27722;SDS011;15123;-37.794;175.246;2022-09-19T03:49:02;11.45;;;1.90;;
27722;SDS011;15123;-37.794;175.246;2022-09-19T03:52:29;14.23;;;2.00;;
27722;SDS011;15123;-37.794;175.246;2022-09-19T03:55:54;15.45;;;2.30;;
27722;SDS011;15123;-37.794;175.246;2022-09-19T03:59:18;16.25;;;2.47;;
27722;SDS011;15123;-37.794;175.246;2022-09-19T04:02:42;15.13;;;2.20;;
27722;SDS011;15123;-37.794;175.246;2022-09-19T04:06:08;15.93;;;2.25;;
27722;SDS011;15123;-37.794;175.246;2022-09-19T04:09:32;13.55;;;2.10;;
27722;SDS011;15123;-37.794;175.246;2022-09-19T04:12:56;17.92;;;2.33;;
27722;SDS011;15123;-37.794;175.246;2022-09-19T04:16:19;15.98;;;2.10;;
27722;SDS011;15123;-37.794;175.246;2022-09-19T04:19:44;12.80;;;2.00;;
27722;SDS011;15123;-37.794;175.246;2022-09-19T04:27:23;17.55;;;2.53;;
27722;SDS011;15123;-37.794;175.246;2022-09-19T04:30:49;15.88;;;2.20;;
27722;SDS011;15123;-37.794;175.246;2022-09-19T04:34:13;18.35;;;2.45;;
27722;SDS011;15123;-37.794;175.246;2022-09-19T04:37:32;15.25;;;2.38;;
27722;SDS011;15123;-37.794;175.246;2022-09-19T04:40:50;16.23;;;2.45;;
27722;SDS011;15123;-37.794;175.246;2022-09-19T04:44:15;16.65;;;2.92;;
27722;SDS011;15123;-37.794;175.246;2022-09-19T04:48:05;21.17;;;3.45;;
27722;SDS011;15123;-37.794;175.246;2022-09-19T04:51:28;17.73;;;3.45;;
27722;SDS011;15123;-37.794;175.246;2022-09-19T04:54:53;17.73;;;2.80;;
27722;SDS011;15123;-37.794;175.246;2022-09-19T04:58:18;14.35;;;3.08;;
27722;SDS011;15123;-37.794;175.246;2022-09-19T05:01:43;17.40;;;2.97;;
27722;SDS011;15123;-37.794;175.246;2022-09-19T05:05:08;19.48;;;3.03;;
27722;SDS011;15123;-37.794;175.246;2022-09-19T05:08:33;14.07;;;3.30;;
27722;SDS011;15123;-37.794;175.246;2022-09-19T05:12:05;16.60;;;3.00;;
27722;SDS011;15123;-37.794;175.246;2022-09-19T05:15:28;13.65;;;3.15;;
27722;SDS011;15123;-37.794;175.246;2022-09-19T05:18:55;14.88;;;2.50;;
27722;SDS011;15123;-37.794;175.246;2022-09-19T05:22:20;15.70;;;3.30;;
27722;SDS011;15123;-37.794;175.246;2022-09-19T05:25:45;17.38;;;3.22;;
27722;SDS011;15123;-37.794;175.246;2022-09-19T05:29:11;14.52;;;3.10;;
27722;SDS011;15123;-37.794;175.246;2022-09-19T05:32:35;14.75;;;3.30;;
27722;SDS011;15123;-37.794;175.246;2022-09-19T05:36:09;14.75;;;3.30;;
27722;SDS011;15123;-37.794;175.246;2022-09-19T05:39:50;17.35;;;3.17;;
27722;SDS011;15123;-37.794;175.246;2022-09-19T05:43:18;15.75;;;3.35;;
27722;SDS011;15123;-37.794;175.246;2022-09-19T05:46:42;14.88;;;3.45;;
27722;SDS011;15123;-37.794;175.246;2022-09-19T05:50:10;17.50;;;3.50;;
27722;SDS011;15123;-37.794;175.246;2022-09-19T05:53:32;15.13;;;3.85;;
27722;SDS011;15123;-37.794;175.246;2022-09-19T05:57:51;14.80;;;3.28;;
27722;SDS011;15123;-37.794;175.246;2022-09-19T06:01:16;14.50;;;3.28;;
27722;SDS011;15123;-37.794;175.246;2022-09-19T06:04:33;14.52;;;3.47;;
27722;SDS011;15123;-37.794;175.246;2022-09-19T06:08:01;20.98;;;4.30;;
27722;SDS011;15123;-37.794;175.246;2022-09-19T06:11:27;14.68;;;3.95;;
27722;SDS011;15123;-37.794;175.246;2022-09-19T06:14:51;14.75;;;3.92;;
27722;SDS011;15123;-37.794;175.246;2022-09-19T06:18:16;17.55;;;4.10;;
27722;SDS011;15123;-37.794;175.246;2022-09-19T06:21:42;14.23;;;3.85;;
27722;SDS011;15123;-37.794;175.246;2022-09-19T06:25:08;16.58;;;3.88;;
27722;SDS011;15123;-37.794;175.246;2022-09-19T06:28:33;18.10;;;4.05;;
27722;SDS011;15123;-37.794;175.246;2022-09-19T06:31:57;13.95;;;3.50;;
27722;SDS011;15123;-37.794;175.246;2022-09-19T06:35:28;16.60;;;3.70;;
27722;SDS011;15123;-37.794;175.246;2022-09-19T06:38:52;19.50;;;3.78;;
27722;SDS011;15123;-37.794;175.246;2022-09-19T06:42:36;19.27;;;4.20;;
27722;SDS011;15123;-37.794;175.246;2022-09-19T06:46:38;15.43;;;3.50;;
27722;SDS011;15123;-37.794;175.246;2022-09-19T06:50:22;18.40;;;3.50;;
27722;SDS011;15123;-37.794;175.246;2022-09-19T06:53:50;20.17;;;4.00;;
27722;SDS011;15123;-37.794;175.246;2022-09-19T06:57:14;21.35;;;4.03;;
27722;SDS011;15123;-37.794;175.246;2022-09-19T07:00:42;21.50;;;4.18;;
27722;SDS011;15123;-37.794;175.246;2022-09-19T07:04:07;21.05;;;4.05;;
27722;SDS011;15123;-37.794;175.246;2022-09-19T07:07:41;19.83;;;4.53;;
27722;SDS011;15123;-37.794;175.246;2022-09-19T07:11:07;16.95;;;4.10;;
27722;SDS011;15123;-37.794;175.246;2022-09-19T07:14:36;23.83;;;4.40;;
27722;SDS011;15123;-37.794;175.246;2022-09-19T07:18:06;22.50;;;4.65;;
27722;SDS011;15123;-37.794;175.246;2022-09-19T07:21:30;27.08;;;5.47;;
27722;SDS011;15123;-37.794;175.246;2022-09-19T07:25:26;21.95;;;4.55;;
27722;SDS011;15123;-37.794;175.246;2022-09-19T07:28:53;21.23;;;4.82;;
27722;SDS011;15123;-37.794;175.246;2022-09-19T07:32:19;24.25;;;4.43;;
27722;SDS011;15123;-37.794;175.246;2022-09-19T07:35:44;21.77;;;4.10;;
27722;SDS011;15123;-37.794;175.246;2022-09-19T07:39:17;19.25;;;4.00;;
27722;SDS011;15123;-37.794;175.246;2022-09-19T07:43:21;24.30;;;4.55;;
27722;SDS011;15123;-37.794;175.246;2022-09-19T07:47:03;18.37;;;4.67;;
27722;SDS011;15123;-37.794;175.246;2022-09-19T07:50:56;22.25;;;4.57;;
27722;SDS011;15123;-37.794;175.246;2022-09-19T07:54:21;20.25;;;4.00;;
27722;SDS011;15123;-37.794;175.246;2022-09-19T07:57:52;20.90;;;4.50;;
27722;SDS011;15123;-37.794;175.246;2022-09-19T08:01:22;25.92;;;4.53;;
27722;SDS011;15123;-37.794;175.246;2022-09-19T08:04:51;21.88;;;4.30;;
27722;SDS011;15123;-37.794;175.246;2022-09-19T08:08:09;17.55;;;4.55;;
27722;SDS011;15123;-37.794;175.246;2022-09-19T08:11:38;21.08;;;4.28;;
27722;SDS011;15123;-37.794;175.246;2022-09-19T08:15:06;20.80;;;3.85;;
27722;SDS011;15123;-37.794;175.246;2022-09-19T08:18:35;23.13;;;4.72;;
27722;SDS011;15123;-37.794;175.246;2022-09-19T08:21:58;22.63;;;4.50;;
27722;SDS011;15123;-37.794;175.246;2022-09-19T08:25:28;19.65;;;4.70;;
27722;SDS011;15123;-37.794;175.246;2022-09-19T08:29:02;23.00;;;4.47;;
27722;SDS011;15123;-37.794;175.246;2022-09-19T08:32:34;28.08;;;6.00;;
27722;SDS011;15123;-37.794;175.246;2022-09-19T08:35:58;24.65;;;6.35;;
27722;SDS011;15123;-37.794;175.246;2022-09-19T08:39:26;22.17;;;4.95;;
27722;SDS011;15123;-37.794;175.246;2022-09-19T08:46:47;15.05;;;3.72;;
27722;SDS011;15123;-37.794;175.246;2022-09-19T08:50:18;19.48;;;3.55;;
27722;SDS011;15123;-37.794;175.246;2022-09-19T08:53:52;13.18;;;3.08;;
27722;SDS011;15123;-37.794;175.246;2022-09-19T09:00:59;13.85;;;2.92;;
27722;SDS011;15123;-37.794;175.246;2022-09-19T09:04:43;12.70;;;3.42;;
27722;SDS011;15123;-37.794;175.246;2022-09-19T09:11:54;16.05;;;3.45;;
27722;SDS011;15123;-37.794;175.246;2022-09-19T09:22:38;9.60;;;2.58;;
27722;SDS011;15123;-37.794;175.246;2022-09-19T09:26:23;14.25;;;3.10;;
27722;SDS011;15123;-37.794;175.246;2022-09-19T09:29:54;15.57;;;3.00;;
27722;SDS011;15123;-37.794;175.246;2022-09-19T09:33:34;14.90;;;2.95;;
27722;SDS011;15123;-37.794;175.246;2022-09-19T09:37:02;12.43;;;3.35;;
27722;SDS011;15123;-37.794;175.246;2022-09-19T09:48:34;18.50;;;4.10;;
27722;SDS011;15123;-37.794;175.246;2022-09-19T09:52:14;16.02;;;3.63;;
27722;SDS011;15123;-37.794;175.246;2022-09-19T09:56:13;15.70;;;3.63;;
27722;SDS011;15123;-37.794;175.246;2022-09-19T09:59:39;15.27;;;4.63;;
27722;SDS011;15123;-37.794;175.246;2022-09-19T10:03:52;15.63;;;3.20;;
27722;SDS011;15123;-37.794;175.246;2022-09-19T10:07:39;16.40;;;3.10;;
27722;SDS011;15123;-37.794;175.246;2022-09-19T10:11:18;15.07;;;3.20;;
27722;SDS011;15123;-37.794;175.246;2022-09-19T10:15:18;18.58;;;2.83;;
27722;SDS011;15123;-37.794;175.246;2022-09-19T10:18:53;14.50;;;2.85;;
27722;SDS011;15123;-37.794;175.246;2022-09-19T10:22:24;16.15;;;2.95;;
27722;SDS011;15123;-37.794;175.246;2022-09-19T10:25:51;19.83;;;3.00;;
27722;SDS011;15123;-37.794;175.246;2022-09-19T10:29:35;15.43;;;3.00;;
27722;SDS011;15123;-37.794;175.246;2022-09-19T10:32:59;12.02;;;3.08;;
27722;SDS011;15123;-37.794;175.246;2022-09-19T10:36:54;13.63;;;2.65;;
27722;SDS011;15123;-37.794;175.246;2022-09-19T10:40:25;9.63;;;2.50;;
27722;SDS011;15123;-37.794;175.246;2022-09-19T10:43:50;14.57;;;2.97;;
27722;SDS011;15123;-37.794;175.246;2022-09-19T10:47:16;10.70;;;2.28;;
27722;SDS011;15123;-37.794;175.246;2022-09-19T10:50:50;12.77;;;2.40;;
27722;SDS011;15123;-37.794;175.246;2022-09-19T10:54:38;11.25;;;2.53;;
27722;SDS011;15123;-37.794;175.246;2022-09-19T10:58:04;10.15;;;2.40;;
27722;SDS011;15123;-37.794;175.246;2022-09-19T11:05:31;9.10;;;2.00;;
27722;SDS011;15123;-37.794;175.246;2022-09-19T11:08:59;11.52;;;2.00;;
27722;SDS011;15123;-37.794;175.246;2022-09-19T11:12:24;10.18;;;2.10;;
27722;SDS011;15123;-37.794;175.246;2022-09-19T11:35:38;10.18;;;1.77;;
27722;SDS011;15123;-37.794;175.246;2022-09-19T11:50:59;8.88;;;1.50;;
27722;SDS011;15123;-37.794;175.246;2022-09-19T11:55:31;6.78;;;1.42;;
27722;SDS011;15123;-37.794;175.246;2022-09-19T12:11:04;5.68;;;1.20;;
27722;SDS011;15123;-37.794;175.246;2022-09-19T12:14:37;6.25;;;1.25;;
27722;SDS011;15123;-37.794;175.246;2022-09-19T12:18:17;7.57;;;1.65;;
27722;SDS011;15123;-37.794;175.246;2022-09-19T12:21:46;6.97;;;1.30;;
27722;SDS011;15123;-37.794;175.246;2022-09-19T12:25:15;8.30;;;1.60;;
27722;SDS011;15123;-37.794;175.246;2022-09-19T12:28:43;8.82;;;1.60;;
27722;SDS011;15123;-37.794;175.246;2022-09-19T12:32:14;8.30;;;1.35;;
27722;SDS011;15123;-37.794;175.246;2022-09-19T12:50:50;7.82;;;1.05;;
27722;SDS011;15123;-37.794;175.246;2022-09-19T12:54:10;8.23;;;1.30;;
27722;SDS011;15123;-37.794;175.246;2022-09-19T13:05:33;4.72;;;1.10;;
27722;SDS011;15123;-37.794;175.246;2022-09-19T13:09:04;4.45;;;1.08;;
27722;SDS011;15123;-37.794;175.246;2022-09-19T13:16:13;4.82;;;1.10;;
27722;SDS011;15123;-37.794;175.246;2022-09-19T13:19:40;5.18;;;1.10;;
27722;SDS011;15123;-37.794;175.246;2022-09-19T13:23:25;8.70;;;1.35;;
27722;SDS011;15123;-37.794;175.246;2022-09-19T13:26:55;7.20;;;1.10;;
27722;SDS011;15123;-37.794;175.246;2022-09-19T13:31:08;4.70;;;1.00;;
27722;SDS011;15123;-37.794;175.246;2022-09-19T13:37:59;7.05;;;1.13;;
27722;SDS011;15123;-37.794;175.246;2022-09-19T13:41:34;6.85;;;1.10;;
27722;SDS011;15123;-37.794;175.246;2022-09-19T13:49:20;7.90;;;1.38;;
27722;SDS011;15123;-37.794;175.246;2022-09-19T13:52:47;6.93;;;1.17;;
27722;SDS011;15123;-37.794;175.246;2022-09-19T13:56:21;7.72;;;1.20;;
27722;SDS011;15123;-37.794;175.246;2022-09-19T13:59:56;7.80;;;1.10;;
27722;SDS011;15123;-37.794;175.246;2022-09-19T14:03:29;9.77;;;1.48;;
27722;SDS011;15123;-37.794;175.246;2022-09-19T14:06:59;10.57;;;1.40;;
27722;SDS011;15123;-37.794;175.246;2022-09-19T14:24:56;7.75;;;1.23;;
27722;SDS011;15123;-37.794;175.246;2022-09-19T14:36:36;6.40;;;1.02;;
27722;SDS011;15123;-37.794;175.246;2022-09-19T14:54:45;8.15;;;1.20;;
27722;SDS011;15123;-37.794;175.246;2022-09-19T14:58:04;6.85;;;1.17;;
27722;SDS011;15123;-37.794;175.246;2022-09-19T15:01:41;8.80;;;1.20;;
27722;SDS011;15123;-37.794;175.246;2022-09-19T15:08:46;6.45;;;1.10;;
27722;SDS011;15123;-37.794;175.246;2022-09-19T15:12:15;8.90;;;1.30;;
27722;SDS011;15123;-37.794;175.246;2022-09-19T15:15:43;9.27;;;1.40;;
27722;SDS011;15123;-37.794;175.246;2022-09-19T15:19:13;6.55;;;1.13;;
27722;SDS011;15123;-37.794;175.246;2022-09-19T15:22:53;6.40;;;1.08;;
27722;SDS011;15123;-37.794;175.246;2022-09-19T15:26:18;9.63;;;1.50;;
27722;SDS011;15123;-37.794;175.246;2022-09-19T15:29:43;10.30;;;1.30;;
27722;SDS011;15123;-37.794;175.246;2022-09-19T15:33:11;6.95;;;1.08;;
27722;SDS011;15123;-37.794;175.246;2022-09-19T15:36:37;7.32;;;1.10;;
27722;SDS011;15123;-37.794;175.246;2022-09-19T15:40:00;7.80;;;1.25;;
27722;SDS011;15123;-37.794;175.246;2022-09-19T15:43:24;7.30;;;1.35;;
27722;SDS011;15123;-37.794;175.246;2022-09-19T15:46:47;7.32;;;1.20;;
27722;SDS011;15123;-37.794;175.246;2022-09-19T15:50:11;6.82;;;1.27;;
27722;SDS011;15123;-37.794;175.246;2022-09-19T15:53:49;5.75;;;1.10;;
27722;SDS011;15123;-37.794;175.246;2022-09-19T15:57:17;7.72;;;1.20;;
27722;SDS011;15123;-37.794;175.246;2022-09-19T16:00:53;7.20;;;1.38;;
27722;SDS011;15123;-37.794;175.246;2022-09-19T16:04:21;7.53;;;1.30;;
27722;SDS011;15123;-37.794;175.246;2022-09-19T16:07:48;7.68;;;1.27;;
27722;SDS011;15123;-37.794;175.246;2022-09-19T16:11:35;9.13;;;1.60;;
27722;SDS011;15123;-37.794;175.246;2022-09-19T16:15:01;8.60;;;1.42;;
27722;SDS011;15123;-37.794;175.246;2022-09-19T16:18:46;8.00;;;1.60;;
27722;SDS011;15123;-37.794;175.246;2022-09-19T16:22:11;10.68;;;1.70;;
27722;SDS011;15123;-37.794;175.246;2022-09-19T16:29:18;11.32;;;2.20;;
27722;SDS011;15123;-37.794;175.246;2022-09-19T16:32:41;10.75;;;2.00;;
27722;SDS011;15123;-37.794;175.246;2022-09-19T16:36:08;8.60;;;2.20;;
27722;SDS011;15123;-37.794;175.246;2022-09-19T16:42:58;14.23;;;2.72;;
27722;SDS011;15123;-37.794;175.246;2022-09-19T16:46:22;15.20;;;2.47;;
27722;SDS011;15123;-37.794;175.246;2022-09-19T16:49:47;11.68;;;2.60;;
27722;SDS011;15123;-37.794;175.246;2022-09-19T16:53:14;11.57;;;3.10;;
27722;SDS011;15123;-37.794;175.246;2022-09-19T16:56:38;12.80;;;2.63;;
27722;SDS011;15123;-37.794;175.246;2022-09-19T16:59:56;12.57;;;2.53;;
27722;SDS011;15123;-37.794;175.246;2022-09-19T17:03:13;15.30;;;2.50;;
27722;SDS011;15123;-37.794;175.246;2022-09-19T17:06:37;17.67;;;2.80;;
27722;SDS011;15123;-37.794;175.246;2022-09-19T17:10:01;14.32;;;2.80;;
27722;SDS011;15123;-37.794;175.246;2022-09-19T17:13:25;12.68;;;2.13;;
27722;SDS011;15123;-37.794;175.246;2022-09-19T17:16:51;17.30;;;2.60;;
27722;SDS011;15123;-37.794;175.246;2022-09-19T17:20:15;16.08;;;2.85;;
27722;SDS011;15123;-37.794;175.246;2022-09-19T17:23:38;11.27;;;2.67;;
27722;SDS011;15123;-37.794;175.246;2022-09-19T17:27:02;12.98;;;2.30;;
27722;SDS011;15123;-37.794;175.246;2022-09-19T17:30:25;14.30;;;2.65;;
27722;SDS011;15123;-37.794;175.246;2022-09-19T17:33:49;11.98;;;2.67;;
27722;SDS011;15123;-37.794;175.246;2022-09-19T17:37:13;9.25;;;2.33;;
27722;SDS011;15123;-37.794;175.246;2022-09-19T17:40:41;9.35;;;2.28;;
27722;SDS011;15123;-37.794;175.246;2022-09-19T17:44:04;11.88;;;3.05;;
27722;SDS011;15123;-37.794;175.246;2022-09-19T17:47:29;9.45;;;2.35;;
27722;SDS011;15123;-37.794;175.246;2022-09-19T17:50:56;10.63;;;2.50;;
27722;SDS011;15123;-37.794;175.246;2022-09-19T17:54:22;12.25;;;2.70;;
27722;SDS011;15123;-37.794;175.246;2022-09-19T17:57:46;13.18;;;3.10;;
27722;SDS011;15123;-37.794;175.246;2022-09-19T18:01:05;9.18;;;2.47;;
27722;SDS011;15123;-37.794;175.246;2022-09-19T18:04:40;10.07;;;2.63;;
27722;SDS011;15123;-37.794;175.246;2022-09-19T18:08:04;10.00;;;2.75;;
27722;SDS011;15123;-37.794;175.246;2022-09-19T18:11:28;15.82;;;3.20;;
27722;SDS011;15123;-37.794;175.246;2022-09-19T18:14:53;12.35;;;3.13;;
27722;SDS011;15123;-37.794;175.246;2022-09-19T18:18:17;15.60;;;3.70;;
27722;SDS011;15123;-37.794;175.246;2022-09-19T18:21:41;9.80;;;3.58;;
27722;SDS011;15123;-37.794;175.246;2022-09-19T18:25:05;9.60;;;3.35;;
27722;SDS011;15123;-37.794;175.246;2022-09-19T18:28:34;9.55;;;3.25;;
27722;SDS011;15123;-37.794;175.246;2022-09-19T18:31:58;14.50;;;3.30;;
27722;SDS011;15123;-37.794;175.246;2022-09-19T18:35:23;16.58;;;3.60;;
27722;SDS011;15123;-37.794;175.246;2022-09-19T18:38:47;12.60;;;3.17;;
27722;SDS011;15123;-37.794;175.246;2022-09-19T18:42:05;12.13;;;3.50;;
27722;SDS011;15123;-37.794;175.246;2022-09-19T18:45:30;12.07;;;3.55;;
27722;SDS011;15123;-37.794;175.246;2022-09-19T18:48:56;16.10;;;3.80;;
27722;SDS011;15123;-37.794;175.246;2022-09-19T18:52:20;9.43;;;3.45;;
27722;SDS011;15123;-37.794;175.246;2022-09-19T18:55:44;13.63;;;3.00;;
27722;SDS011;15123;-37.794;175.246;2022-09-19T18:59:13;12.88;;;4.55;;
27722;SDS011;15123;-37.794;175.246;2022-09-19T19:02:30;10.98;;;3.30;;
27722;SDS011;15123;-37.794;175.246;2022-09-19T19:05:54;10.98;;;3.15;;
27722;SDS011;15123;-37.794;175.246;2022-09-19T19:09:28;18.60;;;5.72;;
27722;SDS011;15123;-37.794;175.246;2022-09-19T19:12:52;32.67;;;14.20;;
27722;SDS011;15123;-37.794;175.246;2022-09-19T19:16:16;20.13;;;10.20;;
27722;SDS011;15123;-37.794;175.246;2022-09-19T19:19:44;29.67;;;13.52;;
27722;SDS011;15123;-37.794;175.246;2022-09-19T19:23:08;28.42;;;13.35;;
27722;SDS011;15123;-37.794;175.246;2022-09-19T19:26:33;22.42;;;7.43;;
27722;SDS011;15123;-37.794;175.246;2022-09-19T19:29:58;16.30;;;5.28;;
27722;SDS011;15123;-37.794;175.246;2022-09-19T19:33:22;16.48;;;4.80;;
27722;SDS011;15123;-37.794;175.246;2022-09-19T19:36:46;18.55;;;5.93;;
27722;SDS011;15123;-37.794;175.246;2022-09-19T19:40:10;18.17;;;5.55;;
27722;SDS011;15123;-37.794;175.246;2022-09-19T19:43:34;14.48;;;4.72;;
27722;SDS011;15123;-37.794;175.246;2022-09-19T19:46:58;19.83;;;5.00;;
27722;SDS011;15123;-37.794;175.246;2022-09-19T19:50:22;18.15;;;4.32;;
27722;SDS011;15123;-37.794;175.246;2022-09-19T19:53:46;16.48;;;4.45;;
27722;SDS011;15123;-37.794;175.246;2022-09-19T19:57:10;15.50;;;3.90;;
27722;SDS011;15123;-37.794;175.246;2022-09-19T20:00:35;18.08;;;4.18;;
27722;SDS011;15123;-37.794;175.246;2022-09-19T20:04:05;12.27;;;3.05;;
27722;SDS011;15123;-37.794;175.246;2022-09-19T20:07:31;15.80;;;3.58;;
27722;SDS011;15123;-37.794;175.246;2022-09-19T20:10:56;19.73;;;3.80;;
27722;SDS011;15123;-37.794;175.246;2022-09-19T20:14:19;18.35;;;4.13;;
27722;SDS011;15123;-37.794;175.246;2022-09-19T20:17:43;14.70;;;3.67;;
27722;SDS011;15123;-37.794;175.246;2022-09-19T20:21:08;16.65;;;3.80;;
27722;SDS011;15123;-37.794;175.246;2022-09-19T20:24:33;15.60;;;3.67;;
27722;SDS011;15123;-37.794;175.246;2022-09-19T20:27:57;14.10;;;3.20;;
27722;SDS011;15123;-37.794;175.246;2022-09-19T20:31:22;21.23;;;3.88;;
27722;SDS011;15123;-37.794;175.246;2022-09-19T20:34:48;18.23;;;3.50;;
27722;SDS011;15123;-37.794;175.246;2022-09-19T20:38:13;15.35;;;3.50;;
27722;SDS011;15123;-37.794;175.246;2022-09-19T20:41:37;15.95;;;3.38;;
27722;SDS011;15123;-37.794;175.246;2022-09-19T20:45:01;15.65;;;3.40;;
27722;SDS011;15123;-37.794;175.246;2022-09-19T20:48:25;14.52;;;2.70;;
27722;SDS011;15123;-37.794;175.246;2022-09-19T20:51:50;18.02;;;3.35;;
27722;SDS011;15123;-37.794;175.246;2022-09-19T20:55:17;19.20;;;2.80;;
27722;SDS011;15123;-37.794;175.246;2022-09-19T20:58:42;20.30;;;3.45;;
27722;SDS011;15123;-37.794;175.246;2022-09-19T21:02:06;15.13;;;2.65;;
27722;SDS011;15123;-37.794;175.246;2022-09-19T21:05:31;17.38;;;2.90;;
27722;SDS011;15123;-37.794;175.246;2022-09-19T21:08:57;15.20;;;2.80;;
27722;SDS011;15123;-37.794;175.246;2022-09-19T21:12:22;15.52;;;2.55;;
27722;SDS011;15123;-37.794;175.246;2022-09-19T21:15:53;15.70;;;2.70;;
27722;SDS011;15123;-37.794;175.246;2022-09-19T21:19:16;11.85;;;2.60;;
27722;SDS011;15123;-37.794;175.246;2022-09-19T21:22:41;17.33;;;2.65;;
27722;SDS011;15123;-37.794;175.246;2022-09-19T21:29:26;16.63;;;2.88;;
27722;SDS011;15123;-37.794;175.246;2022-09-19T21:32:50;15.85;;;2.80;;
27722;SDS011;15123;-37.794;175.246;2022-09-19T21:36:14;14.68;;;2.72;;
27722;SDS011;15123;-37.794;175.246;2022-09-19T21:39:38;14.52;;;2.95;;
27722;SDS011;15123;-37.794;175.246;2022-09-19T21:43:02;17.50;;;3.28;;
27722;SDS011;15123;-37.794;175.246;2022-09-19T21:46:27;17.23;;;3.00;;
27722;SDS011;15123;-37.794;175.246;2022-09-19T21:49:53;13.65;;;2.95;;
27722;SDS011;15123;-37.794;175.246;2022-09-19T21:53:17;15.38;;;3.10;;
27722;SDS011;15123;-37.794;175.246;2022-09-19T21:56:41;17.95;;;3.63;;
27722;SDS011;15123;-37.794;175.246;2022-09-19T22:00:05;15.73;;;3.17;;
27722;SDS011;15123;-37.794;175.246;2022-09-19T22:03:29;13.40;;;2.78;;
27722;SDS011;15123;-37.794;175.246;2022-09-19T22:06:47;14.13;;;3.33;;
27722;SDS011;15123;-37.794;175.246;2022-09-19T22:10:04;14.30;;;2.83;;
27722;SDS011;15123;-37.794;175.246;2022-09-19T22:13:29;11.00;;;2.17;;
27722;SDS011;15123;-37.794;175.246;2022-09-19T22:16:54;13.73;;;2.50;;
27722;SDS011;15123;-37.794;175.246;2022-09-19T22:20:18;12.15;;;2.47;;
27722;SDS011;15123;-37.794;175.246;2022-09-19T22:23:43;11.45;;;2.10;;
27722;SDS011;15123;-37.794;175.246;2022-09-19T22:27:07;12.15;;;2.30;;
27722;SDS011;15123;-37.794;175.246;2022-09-19T22:30:32;11.52;;;2.13;;
27722;SDS011;15123;-37.794;175.246;2022-09-19T22:33:56;12.25;;;2.13;;
27722;SDS011;15123;-37.794;175.246;2022-09-19T22:37:20;14.35;;;2.65;;
27722;SDS011;15123;-37.794;175.246;2022-09-19T22:40:44;10.98;;;1.77;;
27722;SDS011;15123;-37.794;175.246;2022-09-19T22:44:08;13.05;;;2.35;;
27722;SDS011;15123;-37.794;175.246;2022-09-19T22:47:33;11.30;;;2.22;;
27722;SDS011;15123;-37.794;175.246;2022-09-19T22:50:58;13.10;;;2.33;;
27722;SDS011;15123;-37.794;175.246;2022-09-19T22:54:22;10.20;;;2.10;;
27722;SDS011;15123;-37.794;175.246;2022-09-19T22:57:49;11.05;;;1.90;;
27722;SDS011;15123;-37.794;175.246;2022-09-19T23:01:16;10.35;;;2.03;;
27722;SDS011;15123;-37.794;175.246;2022-09-19T23:04:42;9.98;;;1.83;;